createdAt,value
2018-08-19T00:01:44.890Z,99.90
2018-08-19T00:06:48.238Z,99.90
2018-08-19T00:11:51.538Z,99.90
2018-08-19T00:17:07.905Z,99.90
2018-08-19T00:22:11.203Z,99.90
2018-08-19T00:27:14.450Z,99.90
2018-08-19T00:32:17.652Z,99.90
2018-08-19T00:37:20.858Z,99.90
2018-08-19T00:42:24.127Z,99.90
2018-08-19T00:47:27.386Z,99.90
2018-08-19T00:52:30.638Z,99.90
2018-08-19T00:57:33.847Z,99.90
2018-08-19T01:02:37.070Z,99.90
2018-08-19T01:07:40.381Z,99.90
2018-08-19T01:12:43.684Z,99.90
2018-08-19T01:17:46.927Z,99.90
2018-08-19T01:22:50.167Z,99.90
2018-08-19T01:27:53.502Z,99.90
2018-08-19T01:32:56.723Z,99.90
2018-08-19T01:38:00.082Z,99.90
2018-08-19T01:43:05.236Z,99.90
2018-08-19T01:48:08.730Z,99.90
2018-08-19T01:53:11.939Z,99.90
2018-08-19T01:58:15.144Z,99.90
2018-08-19T02:03:18.362Z,99.90
2018-08-19T02:08:21.674Z,99.90
2018-08-19T02:13:24.906Z,99.90
2018-08-19T02:18:28.096Z,99.90
2018-08-19T02:23:31.307Z,99.90
2018-08-19T02:28:34.791Z,99.90
2018-08-19T02:33:38.002Z,99.90
2018-08-19T02:38:41.233Z,99.90
2018-08-19T02:43:59.926Z,99.90
2018-08-19T02:49:03.258Z,99.90
2018-08-19T02:54:06.526Z,99.90
2018-08-19T02:59:10.083Z,99.90
2018-08-19T03:04:13.358Z,99.90
2018-08-19T03:09:16.594Z,99.90
2018-08-19T03:14:19.926Z,99.90
2018-08-19T03:19:23.190Z,99.90
2018-08-19T03:24:34.662Z,99.90
2018-08-19T03:29:43.379Z,99.90
2018-08-19T03:34:46.652Z,99.90
2018-08-19T03:39:50.157Z,99.90
2018-08-19T03:44:53.423Z,99.90
2018-08-19T03:49:56.715Z,99.90
2018-08-19T03:54:59.971Z,99.90
2018-08-19T04:00:04.586Z,99.90
2018-08-19T04:05:07.837Z,99.90
2018-08-19T04:10:11.332Z,99.90
2018-08-19T04:15:14.587Z,99.90
2018-08-19T04:20:21.194Z,99.90
2018-08-19T04:25:29.703Z,99.90
2018-08-19T04:30:32.968Z,99.90
2018-08-19T04:35:36.218Z,99.90
2018-08-19T04:40:46.435Z,99.90
2018-08-19T04:45:49.766Z,99.90
2018-08-19T04:50:54.220Z,99.90
2018-08-19T04:55:57.486Z,99.90
2018-08-19T05:01:00.864Z,99.90
2018-08-19T05:06:04.102Z,99.90
2018-08-19T05:11:07.329Z,99.90
2018-08-19T05:16:15.118Z,99.90
2018-08-19T05:21:18.442Z,99.90
2018-08-19T05:26:21.689Z,99.90
2018-08-19T05:31:25.221Z,99.90
2018-08-19T05:36:32.654Z,99.90
2018-08-19T05:41:36.929Z,99.90
2018-08-19T05:46:40.295Z,99.90
2018-08-19T05:51:44.583Z,99.90
2018-08-19T05:56:48.067Z,99.90
2018-08-19T06:01:52.385Z,99.90
2018-08-19T06:07:04.541Z,99.90
2018-08-19T06:12:11.693Z,99.90
2018-08-19T06:17:15.200Z,99.90
2018-08-19T06:22:20.497Z,99.90
2018-08-19T06:27:24.341Z,99.90
2018-08-19T06:32:31.706Z,99.90
2018-08-19T06:37:37.176Z,99.90
2018-08-19T06:42:47.490Z,99.90
2018-08-19T06:47:53.827Z,99.70
2018-08-19T06:52:57.199Z,99.40
2018-08-19T06:58:00.818Z,99.50
2018-08-19T07:03:09.875Z,99.20
2018-08-19T07:08:13.175Z,99.30
2018-08-19T07:13:16.478Z,99.40
2018-08-19T07:18:19.739Z,98.90
2018-08-19T07:23:25.074Z,98.80
2018-08-19T07:28:28.339Z,98.30
2018-08-19T07:33:33.281Z,98.10
2018-08-19T07:38:36.534Z,98.10
2018-08-19T07:43:39.814Z,98.10
2018-08-19T07:48:43.181Z,97.60
2018-08-19T07:53:47.068Z,97.20
2018-08-19T07:59:03.031Z,96.90
2018-08-19T08:04:07.262Z,96.70
2018-08-19T08:09:10.758Z,96.40
2018-08-19T08:14:14.235Z,95.70
2018-08-19T08:19:17.812Z,95.60
2018-08-19T08:24:27.834Z,95.40
2018-08-19T08:29:31.034Z,95.10
2018-08-19T08:34:34.242Z,94.50
2018-08-19T08:39:43.357Z,94.10
2018-08-19T08:44:47.661Z,94.40
2018-08-19T08:49:50.930Z,93.90
2018-08-19T08:55:02.446Z,93.80
2018-08-19T09:00:07.410Z,94.10
2018-08-19T09:05:12.351Z,93.80
2018-08-19T09:10:32.019Z,93.80
2018-08-19T09:15:35.434Z,93.10
2018-08-19T09:20:49.315Z,92.40
2018-08-19T09:25:52.486Z,92.10
2018-08-19T09:30:55.818Z,91.80
2018-08-19T09:35:59.874Z,91.70
2018-08-19T09:41:03.137Z,92.00
2018-08-19T09:46:10.078Z,91.10
2018-08-19T09:51:15.279Z,91.30
2018-08-19T09:56:21.134Z,91.50
2018-08-19T10:01:30.844Z,92.40
2018-08-19T10:06:36.507Z,92.20
2018-08-19T10:11:41.977Z,92.10
2018-08-19T10:16:46.480Z,92.00
2018-08-19T10:21:50.922Z,91.50
2018-08-19T10:26:54.284Z,91.00
2018-08-19T10:32:01.554Z,91.00
2018-08-19T10:37:05.363Z,90.80
2018-08-19T10:42:21.410Z,90.50
2018-08-19T10:47:25.632Z,89.70
2018-08-19T10:52:31.196Z,89.70
2018-08-19T10:57:35.585Z,88.20
2018-08-19T11:02:38.867Z,87.50
2018-08-19T11:07:42.175Z,88.60
2018-08-19T11:12:46.486Z,89.00
2018-08-19T11:17:50.727Z,86.80
2018-08-19T11:22:56.645Z,86.60
2018-08-19T11:27:59.927Z,86.10
2018-08-19T11:33:04.035Z,85.60
2018-08-19T11:38:07.459Z,85.80
2018-08-19T11:43:16.630Z,85.90
2018-08-19T11:48:20.086Z,85.50
2018-08-19T11:53:23.596Z,84.00
2018-08-19T11:58:48.562Z,83.70
2018-08-19T12:04:00.894Z,85.60
2018-08-19T12:09:07.222Z,84.40
2018-08-19T12:14:13.159Z,82.70
2018-08-19T12:19:35.295Z,84.10
2018-08-19T12:24:46.604Z,81.90
2018-08-19T12:30:06.787Z,83.20
2018-08-19T12:35:10.019Z,82.30
2018-08-19T12:40:13.218Z,82.20
2018-08-19T12:45:16.390Z,79.80
2018-08-19T12:50:19.709Z,80.90
2018-08-19T12:55:22.871Z,80.20
2018-08-19T13:00:27.139Z,80.00
2018-08-19T13:05:32.015Z,78.60
2018-08-19T13:10:41.727Z,78.50
2018-08-19T13:15:45.710Z,78.30
2018-08-19T13:21:04.802Z,78.80
2018-08-19T13:26:08.120Z,77.60
2018-08-19T13:31:15.138Z,77.70
2018-08-19T13:36:32.741Z,76.80
2018-08-19T13:41:36.385Z,76.20
2018-08-19T13:46:40.321Z,73.80
2018-08-19T13:51:43.562Z,75.00
2018-08-19T13:56:51.693Z,76.90
2018-08-19T14:01:57.750Z,74.80
2018-08-19T14:07:01.459Z,73.40
2018-08-19T14:12:05.130Z,74.40
2018-08-19T14:17:08.385Z,73.20
2018-08-19T14:22:11.590Z,73.50
2018-08-19T14:27:15.124Z,72.90
2018-08-19T14:32:30.466Z,73.20
2018-08-19T14:37:33.981Z,73.60
2018-08-19T14:42:37.610Z,71.30
2018-08-19T14:47:40.829Z,71.60
2018-08-19T14:52:44.049Z,72.40
2018-08-19T14:57:47.245Z,72.00
2018-08-19T15:02:50.707Z,70.30
2018-08-19T15:07:53.876Z,71.60
2018-08-19T15:12:57.055Z,71.30
2018-08-19T15:18:02.249Z,70.50
2018-08-19T15:23:15.992Z,71.30
2018-08-19T15:28:20.822Z,72.20
2018-08-19T15:33:24.022Z,71.40
2018-08-19T15:38:29.202Z,72.20
2018-08-19T15:43:35.478Z,71.80
2018-08-19T15:48:38.658Z,72.50
2018-08-19T15:53:42.946Z,72.20
2018-08-19T15:58:49.808Z,72.60
2018-08-19T16:03:58.599Z,73.70
2018-08-19T16:09:01.980Z,74.40
2018-08-19T16:14:17.719Z,75.70
2018-08-19T16:19:21.001Z,75.80
2018-08-19T16:24:25.562Z,77.20
2018-08-19T16:29:28.772Z,78.20
2018-08-19T16:34:32.009Z,77.60
2018-08-19T16:39:35.161Z,78.00
2018-08-19T16:44:38.529Z,79.10
2018-08-19T16:49:41.646Z,80.00
2018-08-19T16:54:46.018Z,80.80
2018-08-19T16:59:49.272Z,81.20
2018-08-19T17:04:52.583Z,82.60
2018-08-19T17:09:57.871Z,83.40
2018-08-19T17:15:01.105Z,84.20
2018-08-19T17:20:04.423Z,84.90
2018-08-19T17:25:08.706Z,85.20
2018-08-19T17:30:16.240Z,86.70
2018-08-19T17:35:19.542Z,87.50
2018-08-19T17:40:23.303Z,87.80
2018-08-19T17:45:27.012Z,88.00
2018-08-19T17:50:30.726Z,88.70
2018-08-19T17:55:34.342Z,88.80
2018-08-19T18:00:37.527Z,89.30
2018-08-19T18:05:40.842Z,89.40
2018-08-19T18:10:51.898Z,89.90
2018-08-19T18:15:56.154Z,90.40
2018-08-19T18:21:02.882Z,90.40
2018-08-19T18:26:06.437Z,90.60
2018-08-19T18:31:22.459Z,90.90
2018-08-19T18:36:26.781Z,91.00
2018-08-19T18:41:39.906Z,91.00
2018-08-19T18:46:47.010Z,91.10
2018-08-19T18:51:52.359Z,91.60
2018-08-19T18:56:55.596Z,91.80
2018-08-19T19:02:00.653Z,91.80
2018-08-19T19:07:03.927Z,92.50
2018-08-19T19:12:07.142Z,92.60
2018-08-19T19:17:10.390Z,92.90
2018-08-19T19:22:14.634Z,93.40
2018-08-19T19:27:18.920Z,93.70
2018-08-19T19:32:24.606Z,93.70
2018-08-19T19:37:28.910Z,94.40
2018-08-19T19:42:38.604Z,94.60
2018-08-19T19:47:41.933Z,95.00
2018-08-19T19:52:57.703Z,94.90
2018-08-19T19:58:00.929Z,95.30
2018-08-19T20:03:04.142Z,95.30
2018-08-19T20:08:07.458Z,95.10
2018-08-19T20:13:10.704Z,95.10
2018-08-19T20:18:13.930Z,95.60
2018-08-19T20:23:22.634Z,95.40
2018-08-19T20:28:25.845Z,95.60
2018-08-19T20:33:29.335Z,95.50
2018-08-19T20:38:32.573Z,95.50
2018-08-19T20:43:35.782Z,95.50
2018-08-19T20:48:39.054Z,95.60
2018-08-19T20:53:42.306Z,95.60
2018-08-19T20:58:45.613Z,95.70
2018-08-19T21:03:48.838Z,96.00
2018-08-19T21:08:53.094Z,96.30
2018-08-19T21:13:56.313Z,96.60
2018-08-19T21:19:00.862Z,97.00
2018-08-19T21:24:04.143Z,97.40
2018-08-19T21:29:07.330Z,97.60
2018-08-19T21:34:10.794Z,97.90
2018-08-19T21:39:17.470Z,98.00
2018-08-19T21:44:20.989Z,98.20
2018-08-19T21:49:24.198Z,98.30
2018-08-19T21:54:27.474Z,98.30
2018-08-19T21:59:32.762Z,98.40
2018-08-19T22:04:35.967Z,98.50
2018-08-19T22:09:39.160Z,98.70
2018-08-19T22:14:44.460Z,98.70
2018-08-19T22:19:47.746Z,98.70
2018-08-19T22:24:51.035Z,98.90
2018-08-19T22:29:54.241Z,98.60
2018-08-19T22:34:57.483Z,98.80
2018-08-19T22:40:00.736Z,98.60
2018-08-19T22:45:04.114Z,98.50
2018-08-19T22:50:07.368Z,98.60
2018-08-19T22:55:10.642Z,98.50
2018-08-19T23:00:18.128Z,98.70
2018-08-19T23:05:21.353Z,98.70
2018-08-19T23:10:24.532Z,98.40
2018-08-19T23:15:36.610Z,98.40
2018-08-19T23:20:39.846Z,98.00
2018-08-19T23:25:43.061Z,98.30
2018-08-19T23:30:47.377Z,98.20
2018-08-19T23:35:50.598Z,98.40
2018-08-19T23:40:53.783Z,98.40
2018-08-19T23:45:57.022Z,98.40
2018-08-19T23:51:00.240Z,98.50
2018-08-19T23:56:03.426Z,98.50
